sensor_id;sensor_type;location;lat;lon;timestamp;P1;P2;P0
68713;PMS7003;55690;51.566;19.198;2024-02-23T00:01:15;6;6;5
68713;PMS7003;55690;51.566;19.198;2024-02-23T00:05:21;10;5;4
68713;PMS7003;55690;51.566;19.198;2024-02-23T00:09:27;10;3;2
68713;PMS7003;55690;51.566;19.198;2024-02-23T00:13:33;4;4;3
68713;PMS7003;55690;51.566;19.198;2024-02-23T00:17:39;8;8;5
68713;PMS7003;55690;51.566;19.198;2024-02-23T00:21:46;11;4;3
68713;PMS7003;55690;51.566;19.198;2024-02-23T00:25:53;4;4;4
68713;PMS7003;55690;51.566;19.198;2024-02-23T00:29:58;6;1;1
68713;PMS7003;55690;51.566;19.198;2024-02-23T00:34:04;2;2;1
68713;PMS7003;55690;51.566;19.198;2024-02-23T00:38:10;5;4;3
68713;PMS7003;55690;51.566;19.198;2024-02-23T00:42:16;2;2;2
68713;PMS7003;55690;51.566;19.198;2024-02-23T00:46:23;9;2;2
68713;PMS7003;55690;51.566;19.198;2024-02-23T00:50:29;4;4;3
68713;PMS7003;55690;51.566;19.198;2024-02-23T00:54:35;6;5;4
68713;PMS7003;55690;51.566;19.198;2024-02-23T00:58:41;2;2;2
68713;PMS7003;55690;51.566;19.198;2024-02-23T01:02:47;7;4;3
68713;PMS7003;55690;51.566;19.198;2024-02-23T01:06:53;12;6;5
68713;PMS7003;55690;51.566;19.198;2024-02-23T01:11:00;7;5;4
68713;PMS7003;55690;51.566;19.198;2024-02-23T01:15:06;2;2;2
68713;PMS7003;55690;51.566;19.198;2024-02-23T01:19:12;3;3;2
68713;PMS7003;55690;51.566;19.198;2024-02-23T01:23:18;5;5;5
68713;PMS7003;55690;51.566;19.198;2024-02-23T01:27:24;6;6;5
68713;PMS7003;55690;51.566;19.198;2024-02-23T01:31:30;16;7;5
68713;PMS7003;55690;51.566;19.198;2024-02-23T01:35:37;2;2;2
68713;PMS7003;55690;51.566;19.198;2024-02-23T01:39:43;5;3;3
68713;PMS7003;55690;51.566;19.198;2024-02-23T01:43:49;2;2;2
68713;PMS7003;55690;51.566;19.198;2024-02-23T01:47:55;3;3;3
68713;PMS7003;55690;51.566;19.198;2024-02-23T01:52:01;1;1;1
68713;PMS7003;55690;51.566;19.198;2024-02-23T01:56:07;2;2;2
68713;PMS7003;55690;51.566;19.198;2024-02-23T02:00:15;16;3;3
68713;PMS7003;55690;51.566;19.198;2024-02-23T02:04:20;4;4;3
68713;PMS7003;55690;51.566;19.198;2024-02-23T02:08:26;18;13;10
68713;PMS7003;55690;51.566;19.198;2024-02-23T02:12:33;9;3;3
68713;PMS7003;55690;51.566;19.198;2024-02-23T02:16:39;1;1;1
68713;PMS7003;55690;51.566;19.198;2024-02-23T02:24:53;3;3;3
68713;PMS7003;55690;51.566;19.198;2024-02-23T02:28:57;5;5;4
68713;PMS7003;55690;51.566;19.198;2024-02-23T02:33:03;5;5;2
68713;PMS7003;55690;51.566;19.198;2024-02-23T02:37:09;1;1;1
68713;PMS7003;55690;51.566;19.198;2024-02-23T02:41:16;2;2;2
68713;PMS7003;55690;51.566;19.198;2024-02-23T02:45:22;3;3;3
68713;PMS7003;55690;51.566;19.198;2024-02-23T02:49:28;5;5;5
68713;PMS7003;55690;51.566;19.198;2024-02-23T02:53:34;3;3;3
68713;PMS7003;55690;51.566;19.198;2024-02-23T02:57:40;8;3;2
68713;PMS7003;55690;51.566;19.198;2024-02-23T03:01:46;0;0;0
68713;PMS7003;55690;51.566;19.198;2024-02-23T03:05:52;1;1;1
68713;PMS7003;55690;51.566;19.198;2024-02-23T03:09:59;6;2;2
68713;PMS7003;55690;51.566;19.198;2024-02-23T03:14:05;1;1;0
68713;PMS7003;55690;51.566;19.198;2024-02-23T03:18:11;5;3;3
68713;PMS7003;55690;51.566;19.198;2024-02-23T03:22:17;8;5;4
68713;PMS7003;55690;51.566;19.198;2024-02-23T03:26:23;1;1;1
68713;PMS7003;55690;51.566;19.198;2024-02-23T03:30:29;3;3;2
68713;PMS7003;55690;51.566;19.198;2024-02-23T03:34:36;7;2;2
68713;PMS7003;55690;51.566;19.198;2024-02-23T03:38:42;4;4;3
68713;PMS7003;55690;51.566;19.198;2024-02-23T03:42:48;5;5;4
68713;PMS7003;55690;51.566;19.198;2024-02-23T03:46:54;8;4;4
68713;PMS7003;55690;51.566;19.198;2024-02-23T03:51:00;10;4;2
68713;PMS7003;55690;51.566;19.198;2024-02-23T03:55:07;4;4;4
68713;PMS7003;55690;51.566;19.198;2024-02-23T03:59:13;2;2;1
68713;PMS7003;55690;51.566;19.198;2024-02-23T04:03:19;7;5;4
68713;PMS7003;55690;51.566;19.198;2024-02-23T04:07:25;5;5;5
68713;PMS7003;55690;51.566;19.198;2024-02-23T04:11:31;6;4;4
68713;PMS7003;55690;51.566;19.198;2024-02-23T04:15:38;6;6;5
68713;PMS7003;55690;51.566;19.198;2024-02-23T04:19:44;4;4;3
68713;PMS7003;55690;51.566;19.198;2024-02-23T04:23:50;3;2;1
68713;PMS7003;55690;51.566;19.198;2024-02-23T04:27:56;2;2;2
68713;PMS7003;55690;51.566;19.198;2024-02-23T04:32:02;6;3;2
68713;PMS7003;55690;51.566;19.198;2024-02-23T04:36:08;6;2;1
68713;PMS7003;55690;51.566;19.198;2024-02-23T04:40:14;8;1;1
68713;PMS7003;55690;51.566;19.198;2024-02-23T04:44:21;4;3;3
68713;PMS7003;55690;51.566;19.198;2024-02-23T04:48:27;3;3;2
68713;PMS7003;55690;51.566;19.198;2024-02-23T04:52:33;4;3;3
68713;PMS7003;55690;51.566;19.198;2024-02-23T04:56:39;6;4;3
68713;PMS7003;55690;51.566;19.198;2024-02-23T05:00:45;9;5;4
68713;PMS7003;55690;51.566;19.198;2024-02-23T05:04:51;2;0;0
68713;PMS7003;55690;51.566;19.198;2024-02-23T05:08:58;2;2;2
68713;PMS7003;55690;51.566;19.198;2024-02-23T05:13:04;3;3;2
68713;PMS7003;55690;51.566;19.198;2024-02-23T05:17:11;6;5;5
68713;PMS7003;55690;51.566;19.198;2024-02-23T05:21:16;3;2;2
68713;PMS7003;55690;51.566;19.198;2024-02-23T05:25:22;3;3;3
68713;PMS7003;55690;51.566;19.198;2024-02-23T05:29:29;2;2;1
68713;PMS7003;55690;51.566;19.198;2024-02-23T05:33:35;8;6;6
68713;PMS7003;55690;51.566;19.198;2024-02-23T05:37:41;6;2;2
68713;PMS7003;55690;51.566;19.198;2024-02-23T05:41:47;1;1;1
68713;PMS7003;55690;51.566;19.198;2024-02-23T05:45:53;4;4;4
68713;PMS7003;55690;51.566;19.198;2024-02-23T05:50:00;1;1;1
68713;PMS7003;55690;51.566;19.198;2024-02-23T05:54:07;1;0;0
68713;PMS7003;55690;51.566;19.198;2024-02-23T05:58:13;3;3;2
68713;PMS7003;55690;51.566;19.198;2024-02-23T06:02:19;1;1;0
68713;PMS7003;55690;51.566;19.198;2024-02-23T06:06:25;4;4;4
68713;PMS7003;55690;51.566;19.198;2024-02-23T06:10:31;3;3;2
68713;PMS7003;55690;51.566;19.198;2024-02-23T06:14:37;5;5;5
68713;PMS7003;55690;51.566;19.198;2024-02-23T06:18:44;1;1;1
68713;PMS7003;55690;51.566;19.198;2024-02-23T06:22:50;6;2;2
68713;PMS7003;55690;51.566;19.198;2024-02-23T06:26:56;1;1;0
68713;PMS7003;55690;51.566;19.198;2024-02-23T06:31:04;0;0;0
68713;PMS7003;55690;51.566;19.198;2024-02-23T06:35:08;5;1;1
68713;PMS7003;55690;51.566;19.198;2024-02-23T06:39:14;10;3;2
68713;PMS7003;55690;51.566;19.198;2024-02-23T06:43:21;4;2;1
68713;PMS7003;55690;51.566;19.198;2024-02-23T06:47:27;8;3;3
68713;PMS7003;55690;51.566;19.198;2024-02-23T06:51:33;1;1;0
68713;PMS7003;55690;51.566;19.198;2024-02-23T06:55:39;2;2;2
68713;PMS7003;55690;51.566;19.198;2024-02-23T06:59:45;2;2;2
68713;PMS7003;55690;51.566;19.198;2024-02-23T07:03:51;4;4;3
68713;PMS7003;55690;51.566;19.198;2024-02-23T07:07:58;1;1;1
68713;PMS7003;55690;51.566;19.198;2024-02-23T07:12:04;2;2;2
68713;PMS7003;55690;51.566;19.198;2024-02-23T07:16:10;3;2;2
68713;PMS7003;55690;51.566;19.198;2024-02-23T07:20:16;3;3;2
68713;PMS7003;55690;51.566;19.198;2024-02-23T07:24:22;7;5;4
68713;PMS7003;55690;51.566;19.198;2024-02-23T07:28:28;0;0;0
68713;PMS7003;55690;51.566;19.198;2024-02-23T07:32:35;3;3;2
68713;PMS7003;55690;51.566;19.198;2024-02-23T07:36:41;2;2;2
68713;PMS7003;55690;51.566;19.198;2024-02-23T07:40:47;9;9;8
68713;PMS7003;55690;51.566;19.198;2024-02-23T07:44:53;1;1;1
68713;PMS7003;55690;51.566;19.198;2024-02-23T07:48:59;1;1;0
68713;PMS7003;55690;51.566;19.198;2024-02-23T07:53:05;3;2;1
68713;PMS7003;55690;51.566;19.198;2024-02-23T07:57:12;2;2;2
68713;PMS7003;55690;51.566;19.198;2024-02-23T08:01:18;7;2;2
68713;PMS7003;55690;51.566;19.198;2024-02-23T08:05:24;1;1;1
68713;PMS7003;55690;51.566;19.198;2024-02-23T08:09:30;10;5;4
68713;PMS7003;55690;51.566;19.198;2024-02-23T08:13:36;2;2;1
68713;PMS7003;55690;51.566;19.198;2024-02-23T08:17:43;4;4;3
68713;PMS7003;55690;51.566;19.198;2024-02-23T08:21:49;2;2;2
68713;PMS7003;55690;51.566;19.198;2024-02-23T08:25:55;9;2;2
68713;PMS7003;55690;51.566;19.198;2024-02-23T08:30:01;5;3;3
68713;PMS7003;55690;51.566;19.198;2024-02-23T08:34:07;1;1;1
68713;PMS7003;55690;51.566;19.198;2024-02-23T08:38:13;3;2;2
68713;PMS7003;55690;51.566;19.198;2024-02-23T08:42:20;8;4;4
68713;PMS7003;55690;51.566;19.198;2024-02-23T08:46:26;11;9;7
68713;PMS7003;55690;51.566;19.198;2024-02-23T08:50:32;2;2;2
68713;PMS7003;55690;51.566;19.198;2024-02-23T08:54:38;2;1;1
68713;PMS7003;55690;51.566;19.198;2024-02-23T08:58:44;4;2;2
68713;PMS7003;55690;51.566;19.198;2024-02-23T09:02:50;5;5;4
68713;PMS7003;55690;51.566;19.198;2024-02-23T09:06:57;7;5;4
68713;PMS7003;55690;51.566;19.198;2024-02-23T09:11:03;11;9;5
68713;PMS7003;55690;51.566;19.198;2024-02-23T09:15:09;5;3;3
68713;PMS7003;55690;51.566;19.198;2024-02-23T09:19:15;2;2;2
68713;PMS7003;55690;51.566;19.198;2024-02-23T09:23:22;9;5;4
68713;PMS7003;55690;51.566;19.198;2024-02-23T09:27:27;5;1;0
68713;PMS7003;55690;51.566;19.198;2024-02-23T09:31:34;1;1;1
68713;PMS7003;55690;51.566;19.198;2024-02-23T09:35:40;3;1;0
68713;PMS7003;55690;51.566;19.198;2024-02-23T09:39:46;4;2;1
68713;PMS7003;55690;51.566;19.198;2024-02-23T09:43:52;4;4;3
68713;PMS7003;55690;51.566;19.198;2024-02-23T09:47:59;4;4;3
68713;PMS7003;55690;51.566;19.198;2024-02-23T09:52:06;7;7;6
68713;PMS7003;55690;51.566;19.198;2024-02-23T09:56:11;4;4;2
68713;PMS7003;55690;51.566;19.198;2024-02-23T10:00:17;3;2;2
68713;PMS7003;55690;51.566;19.198;2024-02-23T10:04:23;6;6;5
68713;PMS7003;55690;51.566;19.198;2024-02-23T10:08:29;3;3;3
68713;PMS7003;55690;51.566;19.198;2024-02-23T10:12:35;6;4;3
68713;PMS7003;55690;51.566;19.198;2024-02-23T10:16:41;2;2;2
68713;PMS7003;55690;51.566;19.198;2024-02-23T10:20:48;3;2;2
68713;PMS7003;55690;51.566;19.198;2024-02-23T10:25:00;6;6;5
68713;PMS7003;55690;51.566;19.198;2024-02-23T10:29:06;8;5;4
68713;PMS7003;55690;51.566;19.198;2024-02-23T10:33:12;8;7;7
68713;PMS7003;55690;51.566;19.198;2024-02-23T10:37:18;10;5;4
68713;PMS7003;55690;51.566;19.198;2024-02-23T10:41:24;5;5;4
68713;PMS7003;55690;51.566;19.198;2024-02-23T10:45:31;3;3;3
68713;PMS7003;55690;51.566;19.198;2024-02-23T10:49:37;2;2;2
68713;PMS7003;55690;51.566;19.198;2024-02-23T10:53:43;3;3;2
68713;PMS7003;55690;51.566;19.198;2024-02-23T10:57:49;17;7;5
68713;PMS7003;55690;51.566;19.198;2024-02-23T11:01:55;9;5;5
68713;PMS7003;55690;51.566;19.198;2024-02-23T11:06:02;3;3;3
68713;PMS7003;55690;51.566;19.198;2024-02-23T11:10:08;7;7;6
68713;PMS7003;55690;51.566;19.198;2024-02-23T11:14:14;10;10;9
68713;PMS7003;55690;51.566;19.198;2024-02-23T11:18:23;13;9;7
68713;PMS7003;55690;51.566;19.198;2024-02-23T11:22:31;3;3;2
68713;PMS7003;55690;51.566;19.198;2024-02-23T11:26:36;4;4;4
68713;PMS7003;55690;51.566;19.198;2024-02-23T11:30:43;13;13;11
68713;PMS7003;55690;51.566;19.198;2024-02-23T11:39:00;7;4;3
68713;PMS7003;55690;51.566;19.198;2024-02-23T11:43:02;8;5;4
68713;PMS7003;55690;51.566;19.198;2024-02-23T11:47:05;12;5;4
68713;PMS7003;55690;51.566;19.198;2024-02-23T11:51:10;4;4;3
68713;PMS7003;55690;51.566;19.198;2024-02-23T11:55:19;3;3;3
68713;PMS7003;55690;51.566;19.198;2024-02-23T11:59:24;2;2;2
68713;PMS7003;55690;51.566;19.198;2024-02-23T12:03:31;4;4;4
68713;PMS7003;55690;51.566;19.198;2024-02-23T12:07:34;12;5;5
68713;PMS7003;55690;51.566;19.198;2024-02-23T12:11:40;5;3;2
68713;PMS7003;55690;51.566;19.198;2024-02-23T12:15:52;11;9;8
68713;PMS7003;55690;51.566;19.198;2024-02-23T12:24:06;8;8;7
68713;PMS7003;55690;51.566;19.198;2024-02-23T12:28:09;9;9;8
68713;PMS7003;55690;51.566;19.198;2024-02-23T12:32:11;5;5;4
68713;PMS7003;55690;51.566;19.198;2024-02-23T12:36:17;11;5;4
68713;PMS7003;55690;51.566;19.198;2024-02-23T12:40:23;9;8;6
68713;PMS7003;55690;51.566;19.198;2024-02-23T12:44:30;7;7;4
68713;PMS7003;55690;51.566;19.198;2024-02-23T12:48:36;3;3;3
68713;PMS7003;55690;51.566;19.198;2024-02-23T12:52:42;3;3;2
68713;PMS7003;55690;51.566;19.198;2024-02-23T12:56:48;17;12;10
68713;PMS7003;55690;51.566;19.198;2024-02-23T13:00:55;19;16;13
68713;PMS7003;55690;51.566;19.198;2024-02-23T13:05:00;9;5;5
68713;PMS7003;55690;51.566;19.198;2024-02-23T13:09:07;10;8;8
68713;PMS7003;55690;51.566;19.198;2024-02-23T13:13:13;11;10;8
68713;PMS7003;55690;51.566;19.198;2024-02-23T13:17:19;8;7;7
68713;PMS7003;55690;51.566;19.198;2024-02-23T13:21:25;6;2;2
68713;PMS7003;55690;51.566;19.198;2024-02-23T13:25:31;13;11;8
68713;PMS7003;55690;51.566;19.198;2024-02-23T13:29:38;20;10;7
68713;PMS7003;55690;51.566;19.198;2024-02-23T13:33:44;4;4;4
68713;PMS7003;55690;51.566;19.198;2024-02-23T13:37:50;7;6;5
68713;PMS7003;55690;51.566;19.198;2024-02-23T13:41:56;20;15;11
68713;PMS7003;55690;51.566;19.198;2024-02-23T13:46:02;14;12;10
68713;PMS7003;55690;51.566;19.198;2024-02-23T13:50:09;5;4;3
68713;PMS7003;55690;51.566;19.198;2024-02-23T13:54:15;8;5;5
68713;PMS7003;55690;51.566;19.198;2024-02-23T13:58:21;16;7;7
68713;PMS7003;55690;51.566;19.198;2024-02-23T14:02:27;14;11;10
68713;PMS7003;55690;51.566;19.198;2024-02-23T14:06:33;21;16;10
68713;PMS7003;55690;51.566;19.198;2024-02-23T14:10:39;10;8;6
68713;PMS7003;55690;51.566;19.198;2024-02-23T14:14:45;4;4;4
68713;PMS7003;55690;51.566;19.198;2024-02-23T14:18:52;5;5;4
68713;PMS7003;55690;51.566;19.198;2024-02-23T14:22:58;5;5;3
68713;PMS7003;55690;51.566;19.198;2024-02-23T14:27:04;10;2;2
68713;PMS7003;55690;51.566;19.198;2024-02-23T14:31:10;20;4;3
68713;PMS7003;55690;51.566;19.198;2024-02-23T14:35:16;5;5;4
68713;PMS7003;55690;51.566;19.198;2024-02-23T14:39:23;10;7;5
68713;PMS7003;55690;51.566;19.198;2024-02-23T14:43:29;5;3;1
68713;PMS7003;55690;51.566;19.198;2024-02-23T14:47:35;9;4;4
68713;PMS7003;55690;51.566;19.198;2024-02-23T14:51:41;5;5;4
68713;PMS7003;55690;51.566;19.198;2024-02-23T14:55:47;1;1;0
68713;PMS7003;55690;51.566;19.198;2024-02-23T14:59:53;4;1;1
68713;PMS7003;55690;51.566;19.198;2024-02-23T15:03:59;4;4;4
68713;PMS7003;55690;51.566;19.198;2024-02-23T15:08:06;2;2;2
68713;PMS7003;55690;51.566;19.198;2024-02-23T15:12:12;6;4;3
68713;PMS7003;55690;51.566;19.198;2024-02-23T15:16:18;14;10;8
68713;PMS7003;55690;51.566;19.198;2024-02-23T15:20:24;10;8;7
68713;PMS7003;55690;51.566;19.198;2024-02-23T15:24:30;9;5;4
68713;PMS7003;55690;51.566;19.198;2024-02-23T15:28:37;10;10;7
68713;PMS7003;55690;51.566;19.198;2024-02-23T15:32:43;15;15;10
68713;PMS7003;55690;51.566;19.198;2024-02-23T15:36:49;23;21;14
68713;PMS7003;55690;51.566;19.198;2024-02-23T15:40:55;21;15;8
68713;PMS7003;55690;51.566;19.198;2024-02-23T15:45:02;20;13;10
68713;PMS7003;55690;51.566;19.198;2024-02-23T15:49:07;12;12;8
68713;PMS7003;55690;51.566;19.198;2024-02-23T15:53:13;31;24;13
68713;PMS7003;55690;51.566;19.198;2024-02-23T15:57:20;23;20;14
68713;PMS7003;55690;51.566;19.198;2024-02-23T16:01:26;27;19;13
68713;PMS7003;55690;51.566;19.198;2024-02-23T16:05:32;17;10;8
68713;PMS7003;55690;51.566;19.198;2024-02-23T16:09:38;20;18;13
68713;PMS7003;55690;51.566;19.198;2024-02-23T16:13:44;19;17;14
68713;PMS7003;55690;51.566;19.198;2024-02-23T16:17:51;11;11;9
68713;PMS7003;55690;51.566;19.198;2024-02-23T16:21:57;22;15;11
68713;PMS7003;55690;51.566;19.198;2024-02-23T16:26:03;25;19;13
68713;PMS7003;55690;51.566;19.198;2024-02-23T16:30:09;16;14;11
68713;PMS7003;55690;51.566;19.198;2024-02-23T16:34:15;31;21;15
68713;PMS7003;55690;51.566;19.198;2024-02-23T16:38:24;12;10;8
68713;PMS7003;55690;51.566;19.198;2024-02-23T16:42:28;23;15;11
68713;PMS7003;55690;51.566;19.198;2024-02-23T16:46:34;38;22;16
68713;PMS7003;55690;51.566;19.198;2024-02-23T16:50:40;22;18;12
68713;PMS7003;55690;51.566;19.198;2024-02-23T16:54:46;37;22;16
68713;PMS7003;55690;51.566;19.198;2024-02-23T16:58:52;21;15;10
68713;PMS7003;55690;51.566;19.198;2024-02-23T17:02:58;17;13;7
68713;PMS7003;55690;51.566;19.198;2024-02-23T17:07:05;19;18;15
68713;PMS7003;55690;51.566;19.198;2024-02-23T17:11:11;24;18;13
68713;PMS7003;55690;51.566;19.198;2024-02-23T17:15:17;27;22;16
68713;PMS7003;55690;51.566;19.198;2024-02-23T17:19:23;16;13;9
68713;PMS7003;55690;51.566;19.198;2024-02-23T17:23:29;21;17;11
68713;PMS7003;55690;51.566;19.198;2024-02-23T17:27:35;31;27;16
68713;PMS7003;55690;51.566;19.198;2024-02-23T17:31:42;29;18;10
68713;PMS7003;55690;51.566;19.198;2024-02-23T17:35:48;30;22;17
68713;PMS7003;55690;51.566;19.198;2024-02-23T17:39:54;20;20;14
68713;PMS7003;55690;51.566;19.198;2024-02-23T17:44:00;23;21;14
68713;PMS7003;55690;51.566;19.198;2024-02-23T17:48:06;24;20;16
68713;PMS7003;55690;51.566;19.198;2024-02-23T17:52:13;31;21;16
68713;PMS7003;55690;51.566;19.198;2024-02-23T17:56:19;23;23;17
68713;PMS7003;55690;51.566;19.198;2024-02-23T18:00:25;22;17;11
68713;PMS7003;55690;51.566;19.198;2024-02-23T18:04:31;24;14;11
68713;PMS7003;55690;51.566;19.198;2024-02-23T18:08:37;17;15;11
68713;PMS7003;55690;51.566;19.198;2024-02-23T18:12:43;15;15;10
68713;PMS7003;55690;51.566;19.198;2024-02-23T18:16:50;22;19;15
68713;PMS7003;55690;51.566;19.198;2024-02-23T18:20:56;26;18;14
68713;PMS7003;55690;51.566;19.198;2024-02-23T18:25:02;14;14;10
68713;PMS7003;55690;51.566;19.198;2024-02-23T18:29:08;9;9;7
68713;PMS7003;55690;51.566;19.198;2024-02-23T18:33:14;15;12;9
68713;PMS7003;55690;51.566;19.198;2024-02-23T18:37:21;24;18;14
68713;PMS7003;55690;51.566;19.198;2024-02-23T18:41:27;19;14;10
68713;PMS7003;55690;51.566;19.198;2024-02-23T18:45:33;24;20;14
68713;PMS7003;55690;51.566;19.198;2024-02-23T18:49:39;17;17;10
68713;PMS7003;55690;51.566;19.198;2024-02-23T18:53:45;25;20;14
68713;PMS7003;55690;51.566;19.198;2024-02-23T18:57:51;14;11;9
68713;PMS7003;55690;51.566;19.198;2024-02-23T19:01:58;41;33;22
68713;PMS7003;55690;51.566;19.198;2024-02-23T19:06:04;34;30;17
68713;PMS7003;55690;51.566;19.198;2024-02-23T19:10:10;38;29;18
68713;PMS7003;55690;51.566;19.198;2024-02-23T19:14:16;11;11;9
68713;PMS7003;55690;51.566;19.198;2024-02-23T19:18:22;7;7;5
68713;PMS7003;55690;51.566;19.198;2024-02-23T19:22:28;19;8;5
68713;PMS7003;55690;51.566;19.198;2024-02-23T19:26:35;23;18;12
68713;PMS7003;55690;51.566;19.198;2024-02-23T19:30:41;17;12;9
68713;PMS7003;55690;51.566;19.198;2024-02-23T19:34:47;13;9;6
68713;PMS7003;55690;51.566;19.198;2024-02-23T19:38:53;10;10;7
68713;PMS7003;55690;51.566;19.198;2024-02-23T19:42:59;32;11;10
68713;PMS7003;55690;51.566;19.198;2024-02-23T19:47:06;77;61;41
68713;PMS7003;55690;51.566;19.198;2024-02-23T19:51:12;33;27;17
68713;PMS7003;55690;51.566;19.198;2024-02-23T19:55:18;15;8;6
68713;PMS7003;55690;51.566;19.198;2024-02-23T19:59:24;17;13;9
68713;PMS7003;55690;51.566;19.198;2024-02-23T20:03:30;42;32;18
68713;PMS7003;55690;51.566;19.198;2024-02-23T20:07:36;34;26;19
68713;PMS7003;55690;51.566;19.198;2024-02-23T20:11:43;7;2;2
68713;PMS7003;55690;51.566;19.198;2024-02-23T20:15:49;30;26;15
68713;PMS7003;55690;51.566;19.198;2024-02-23T20:19:55;8;8;5
68713;PMS7003;55690;51.566;19.198;2024-02-23T20:24:01;13;9;6
68713;PMS7003;55690;51.566;19.198;2024-02-23T20:28:07;12;12;10
68713;PMS7003;55690;51.566;19.198;2024-02-23T20:32:13;13;8;7
68713;PMS7003;55690;51.566;19.198;2024-02-23T20:36:20;10;10;7
68713;PMS7003;55690;51.566;19.198;2024-02-23T20:40:26;19;13;10
68713;PMS7003;55690;51.566;19.198;2024-02-23T20:44:32;29;19;14
68713;PMS7003;55690;51.566;19.198;2024-02-23T20:48:38;26;19;14
68713;PMS7003;55690;51.566;19.198;2024-02-23T20:52:44;38;26;15
68713;PMS7003;55690;51.566;19.198;2024-02-23T20:56:50;35;13;9
68713;PMS7003;55690;51.566;19.198;2024-02-23T21:00:57;13;13;9
68713;PMS7003;55690;51.566;19.198;2024-02-23T21:05:03;14;13;10
68713;PMS7003;55690;51.566;19.198;2024-02-23T21:09:09;24;16;10
68713;PMS7003;55690;51.566;19.198;2024-02-23T21:13:15;29;15;12
68713;PMS7003;55690;51.566;19.198;2024-02-23T21:17:21;17;14;11
68713;PMS7003;55690;51.566;19.198;2024-02-23T21:21:27;28;23;14
68713;PMS7003;55690;51.566;19.198;2024-02-23T21:25:34;15;13;11
68713;PMS7003;55690;51.566;19.198;2024-02-23T21:29:40;35;21;13
68713;PMS7003;55690;51.566;19.198;2024-02-23T21:33:46;18;17;12
68713;PMS7003;55690;51.566;19.198;2024-02-23T21:37:54;50;41;28
68713;PMS7003;55690;51.566;19.198;2024-02-23T21:41:59;39;25;18
68713;PMS7003;55690;51.566;19.198;2024-02-23T21:46:05;21;19;11
68713;PMS7003;55690;51.566;19.198;2024-02-23T21:50:12;30;26;18
68713;PMS7003;55690;51.566;19.198;2024-02-23T21:54:17;37;24;16
68713;PMS7003;55690;51.566;19.198;2024-02-23T21:58:23;18;15;11
68713;PMS7003;55690;51.566;19.198;2024-02-23T22:02:29;40;33;23
68713;PMS7003;55690;51.566;19.198;2024-02-23T22:06:35;38;22;15
68713;PMS7003;55690;51.566;19.198;2024-02-23T22:10:42;28;20;14
68713;PMS7003;55690;51.566;19.198;2024-02-23T22:14:48;18;18;13
68713;PMS7003;55690;51.566;19.198;2024-02-23T22:18:54;23;21;9
68713;PMS7003;55690;51.566;19.198;2024-02-23T22:23:00;27;14;11
68713;PMS7003;55690;51.566;19.198;2024-02-23T22:27:07;27;20;13
68713;PMS7003;55690;51.566;19.198;2024-02-23T22:31:13;45;35;21
68713;PMS7003;55690;51.566;19.198;2024-02-23T22:35:19;12;10;7
68713;PMS7003;55690;51.566;19.198;2024-02-23T22:39:25;21;15;11
68713;PMS7003;55690;51.566;19.198;2024-02-23T22:43:32;17;15;10
68713;PMS7003;55690;51.566;19.198;2024-02-23T22:47:38;37;33;23
68713;PMS7003;55690;51.566;19.198;2024-02-23T22:51:44;46;37;27
68713;PMS7003;55690;51.566;19.198;2024-02-23T22:55:50;25;11;6
68713;PMS7003;55690;51.566;19.198;2024-02-23T22:59:56;11;9;7
68713;PMS7003;55690;51.566;19.198;2024-02-23T23:04:03;28;8;7
68713;PMS7003;55690;51.566;19.198;2024-02-23T23:08:09;11;8;7
68713;PMS7003;55690;51.566;19.198;2024-02-23T23:12:15;16;10;9
68713;PMS7003;55690;51.566;19.198;2024-02-23T23:16:21;14;14;8
68713;PMS7003;55690;51.566;19.198;2024-02-23T23:20:27;12;11;7
68713;PMS7003;55690;51.566;19.198;2024-02-23T23:24:33;7;6;5
68713;PMS7003;55690;51.566;19.198;2024-02-23T23:28:39;12;10;6
68713;PMS7003;55690;51.566;19.198;2024-02-23T23:32:46;8;8;7
68713;PMS7003;55690;51.566;19.198;2024-02-23T23:36:52;10;10;6
68713;PMS7003;55690;51.566;19.198;2024-02-23T23:40:58;6;1;0
68713;PMS7003;55690;51.566;19.198;2024-02-23T23:45:05;8;7;5
68713;PMS7003;55690;51.566;19.198;2024-02-23T23:49:10;14;8;6
68713;PMS7003;55690;51.566;19.198;2024-02-23T23:53:17;17;10;7
68713;PMS7003;55690;51.566;19.198;2024-02-23T23:57:23;15;15;11
